Time;durP1;ratioP1;P1;durP2;ratioP2;P2;SDS_P1;SDS_P2;PMS_P1;PMS_P2;Temp;Humidity;BMP_temperature;BMP_pressure;BME280_temperature;BME280_humidity;BME280_pressure;Samples;Min_cycle;Max_cycle;Signal;HPM_P1;HPM_P2
2023/12/13 00:02:21;;;;;;;2.40;0.43;;;8.30;99.90;;;;;;7344023;32;20171;-56
2023/12/13 00:06:23;;;;;;;1.05;0.40;;;8.30;99.90;;;;;;7348879;32;20154;-56
2023/12/13 00:10:25;;;;;;;4.07;0.77;;;8.20;99.90;;;;;;7348987;32;20161;-55
2023/12/13 00:14:27;;;;;;;2.25;0.70;;;8.10;99.90;;;;;;7348668;32;20292;-55
2023/12/13 00:18:29;;;;;;;3.10;0.70;;;8.10;99.90;;;;;;7346424;32;20517;-56
2023/12/13 00:22:32;;;;;;;4.78;0.70;;;8.10;99.90;;;;;;7344230;32;20160;-56
2023/12/13 00:26:34;;;;;;;2.80;0.60;;;8.00;99.90;;;;;;7351214;32;20122;-55
2023/12/13 00:30:35;;;;;;;1.40;0.70;;;7.80;99.90;;;;;;7346655;32;20159;-56
2023/12/13 00:34:37;;;;;;;2.65;0.90;;;7.90;99.90;;;;;;7347265;32;20292;-57
2023/12/13 00:38:39;;;;;;;3.17;0.70;;;7.80;99.90;;;;;;7346062;32;20762;-55
2023/12/13 00:42:41;;;;;;;3.95;0.70;;;7.80;99.90;;;;;;7341188;32;20120;-56
2023/12/13 00:46:42;;;;;;;2.17;0.60;;;7.70;99.90;;;;;;7347961;32;20433;-55
2023/12/13 00:50:44;;;;;;;2.87;0.77;;;7.70;99.90;;;;;;7345251;32;20573;-55
2023/12/13 00:54:46;;;;;;;2.72;0.60;;;7.70;99.90;;;;;;7348618;32;20111;-56
2023/12/13 00:58:48;;;;;;;2.55;0.70;;;7.70;99.90;;;;;;7349070;32;20122;-56
2023/12/13 01:02:50;;;;;;;4.43;1.05;;;7.60;99.90;;;;;;7346329;32;20114;-55
2023/12/13 01:06:52;;;;;;;2.72;0.80;;;7.60;99.90;;;;;;7348152;32;20742;-55
2023/12/13 01:10:54;;;;;;;1.92;0.82;;;7.60;99.90;;;;;;7356077;32;20127;-55
2023/12/13 01:14:56;;;;;;;4.87;1.45;;;7.70;99.90;;;;;;7351571;32;20489;-55
2023/12/13 01:18:58;;;;;;;1.52;0.80;;;7.80;99.90;;;;;;7349367;32;20636;-55
2023/12/13 01:22:59;;;;;;;2.45;0.93;;;7.70;99.90;;;;;;7355162;32;20482;-55
2023/12/13 01:27:01;;;;;;;5.62;1.00;;;7.70;99.90;;;;;;7353771;32;20554;-56
2023/12/13 01:31:09;;;;;;;2.28;0.82;;;7.80;99.90;;;;;;7352904;32;20100;-56
2023/12/13 01:35:11;;;;;;;3.87;0.88;;;7.80;99.90;;;;;;7348157;32;20311;-56
2023/12/13 01:39:16;;;;;;;3.95;1.10;;;7.80;99.90;;;;;;7352848;32;20249;-56
2023/12/13 01:43:25;;;;;;;3.65;0.85;;;7.80;99.90;;;;;;7355561;32;20172;-55
2023/12/13 01:47:26;;;;;;;5.65;1.23;;;7.80;99.90;;;;;;7355672;32;20245;-56
2023/12/13 01:51:28;;;;;;;6.32;1.20;;;7.80;99.90;;;;;;7353178;32;20340;-55
2023/12/13 01:55:30;;;;;;;4.00;1.00;;;7.90;99.90;;;;;;7350716;32;20570;-56
2023/12/13 01:59:33;;;;;;;4.72;1.05;;;7.90;99.90;;;;;;7348843;32;20190;-55
2023/12/13 02:03:36;;;;;;;3.12;0.90;;;7.80;99.90;;;;;;7353250;32;20168;-57
2023/12/13 02:07:38;;;;;;;3.87;1.10;;;7.70;99.90;;;;;;7348868;32;20198;-56
2023/12/13 02:11:40;;;;;;;3.08;1.10;;;7.70;99.90;;;;;;7349327;32;20109;-55
2023/12/13 02:15:45;;;;;;;6.12;0.90;;;7.80;99.90;;;;;;7353635;32;20118;-56
2023/12/13 02:19:47;;;;;;;5.22;1.12;;;7.70;99.90;;;;;;7349748;32;20159;-55
2023/12/13 02:23:51;;;;;;;4.43;1.08;;;7.80;99.90;;;;;;7351418;32;20324;-56
2023/12/13 02:27:53;;;;;;;5.53;1.00;;;7.80;99.90;;;;;;7356376;32;20172;-55
2023/12/13 02:31:54;;;;;;;4.35;1.00;;;7.90;99.90;;;;;;7350296;32;20225;-56
2023/12/13 02:35:59;;;;;;;6.47;1.10;;;7.90;99.90;;;;;;7353721;32;20092;-55
2023/12/13 02:40:03;;;;;;;7.40;0.90;;;7.90;99.90;;;;;;7352748;32;20122;-56
2023/12/13 02:44:05;;;;;;;5.95;0.98;;;7.90;99.90;;;;;;7348075;32;20151;-56
2023/12/13 02:48:07;;;;;;;4.15;0.93;;;7.90;99.90;;;;;;7346511;32;20168;-56
2023/12/13 02:52:09;;;;;;;5.80;0.85;;;7.90;99.90;;;;;;7349659;32;20201;-55
2023/12/13 02:56:11;;;;;;;2.95;1.00;;;7.90;99.90;;;;;;7350995;32;20210;-55
2023/12/13 03:00:13;;;;;;;2.42;0.85;;;7.90;99.90;;;;;;7345414;32;20103;-56
2023/12/13 03:04:15;;;;;;;6.25;1.30;;;7.90;99.90;;;;;;7349968;32;20148;-55
2023/12/13 03:08:16;;;;;;;7.30;0.88;;;8.00;99.90;;;;;;7343987;32;20175;-55
2023/12/13 03:12:18;;;;;;;4.53;0.90;;;8.00;99.90;;;;;;7346233;32;20268;-56
2023/12/13 03:16:20;;;;;;;1.67;0.68;;;8.00;99.90;;;;;;7346719;32;20542;-57
2023/12/13 03:20:25;;;;;;;4.43;0.95;;;8.00;99.90;;;;;;7347461;32;20217;-56
2023/12/13 03:24:27;;;;;;;4.72;0.93;;;7.90;99.90;;;;;;7340999;32;20511;-54
2023/12/13 03:28:28;;;;;;;3.70;1.20;;;8.10;99.90;;;;;;7343278;32;20899;-55
2023/12/13 03:32:30;;;;;;;3.67;0.98;;;8.00;99.90;;;;;;7347553;32;20475;-56
2023/12/13 03:36:32;;;;;;;2.58;0.80;;;8.00;99.90;;;;;;7345372;32;20263;-57
2023/12/13 03:40:34;;;;;;;3.65;0.95;;;7.90;99.90;;;;;;7341674;32;20143;-55
2023/12/13 03:44:35;;;;;;;9.00;1.08;;;8.00;99.90;;;;;;7349294;32;20118;-55
2023/12/13 03:48:37;;;;;;;5.80;1.35;;;8.10;99.90;;;;;;7344235;32;20208;-56
2023/12/13 03:52:40;;;;;;;5.72;1.15;;;8.10;99.90;;;;;;7346032;32;20655;-55
2023/12/13 03:56:42;;;;;;;4.90;0.88;;;8.10;99.90;;;;;;7341648;32;20218;-56
2023/12/13 04:00:43;;;;;;;6.32;1.10;;;8.20;99.90;;;;;;7344735;32;20119;-56
2023/12/13 04:04:45;;;;;;;4.97;1.08;;;8.10;99.90;;;;;;7353219;32;20092;-56
2023/12/13 04:08:47;;;;;;;5.40;1.00;;;8.00;99.90;;;;;;7351362;32;20576;-55
2023/12/13 04:12:49;;;;;;;5.57;1.02;;;8.20;99.90;;;;;;7353829;32;20267;-55
2023/12/13 04:16:50;;;;;;;8.05;1.52;;;8.20;99.90;;;;;;7348828;32;20118;-55
2023/12/13 04:20:52;;;;;;;13.62;1.37;;;8.10;99.90;;;;;;7352893;32;20200;-53
2023/12/13 04:24:54;;;;;;;7.12;1.10;;;8.20;99.90;;;;;;7353920;32;20164;-57
2023/12/13 04:28:56;;;;;;;6.97;1.60;;;8.10;99.90;;;;;;7350114;32;20123;-54
2023/12/13 04:32:57;;;;;;;6.68;1.25;;;8.20;99.90;;;;;;7353450;32;20092;-53
2023/12/13 04:36:59;;;;;;;5.70;0.95;;;8.20;99.90;;;;;;7352105;32;20126;-55
2023/12/13 04:41:01;;;;;;;6.35;1.15;;;8.20;99.90;;;;;;7353106;32;20766;-55
2023/12/13 04:45:04;;;;;;;6.12;1.05;;;8.20;99.90;;;;;;7349062;32;20118;-55
2023/12/13 04:49:06;;;;;;;8.27;1.40;;;8.20;99.90;;;;;;7343485;32;20544;-55
2023/12/13 04:53:08;;;;;;;7.75;1.40;;;8.20;99.90;;;;;;7343225;32;20177;-54
2023/12/13 04:57:10;;;;;;;5.93;1.17;;;8.20;99.90;;;;;;7350834;32;20211;-56
2023/12/13 05:01:12;;;;;;;7.97;1.23;;;8.30;99.90;;;;;;7352617;32;20107;-56
2023/12/13 05:05:14;;;;;;;9.48;1.50;;;8.20;99.90;;;;;;7347205;32;20421;-55
2023/12/13 05:09:16;;;;;;;5.80;1.33;;;8.20;99.90;;;;;;7351540;32;20161;-56
2023/12/13 05:13:18;;;;;;;7.80;1.95;;;8.20;99.90;;;;;;7350261;32;20156;-55
2023/12/13 05:17:20;;;;;;;7.43;1.37;;;8.20;99.90;;;;;;7345828;32;20129;-56
2023/12/13 05:21:22;;;;;;;7.47;1.40;;;8.20;99.90;;;;;;7350059;32;20222;-56
2023/12/13 05:25:23;;;;;;;8.93;1.52;;;8.20;99.90;;;;;;7341450;32;20134;-55
2023/12/13 05:29:25;;;;;;;8.93;1.75;;;8.20;99.90;;;;;;7350630;32;20171;-56
2023/12/13 05:33:27;;;;;;;10.20;2.12;;;8.30;99.90;;;;;;7350940;32;20152;-56
2023/12/13 05:37:29;;;;;;;11.88;1.62;;;8.30;99.90;;;;;;7348852;32;20099;-55
2023/12/13 05:41:31;;;;;;;6.50;1.48;;;8.40;99.90;;;;;;7348114;32;20111;-56
2023/12/13 05:45:32;;;;;;;8.38;1.48;;;8.30;99.90;;;;;;7350359;32;20164;-55
2023/12/13 05:49:34;;;;;;;12.45;1.98;;;8.20;99.90;;;;;;7345713;32;20114;-56
2023/12/13 05:53:36;;;;;;;7.95;1.70;;;8.30;99.90;;;;;;7349143;32;20111;-54
2023/12/13 05:57:38;;;;;;;12.57;1.83;;;8.30;99.90;;;;;;7351875;32;20191;-54
2023/12/13 06:01:39;;;;;;;10.05;1.85;;;8.30;99.90;;;;;;7342962;32;20243;-56
2023/12/13 06:05:41;;;;;;;7.78;1.60;;;8.40;99.90;;;;;;7353622;32;20890;-56
2023/12/13 06:09:43;;;;;;;6.28;1.95;;;8.40;99.90;;;;;;7349137;32;20423;-56
2023/12/13 06:13:45;;;;;;;9.85;1.98;;;8.40;99.90;;;;;;7349514;32;20099;-55
2023/12/13 06:17:48;;;;;;;10.02;1.92;;;8.30;99.90;;;;;;7339416;32;20131;-55
2023/12/13 06:21:49;;;;;;;10.15;2.12;;;8.30;99.90;;;;;;7344918;32;20182;-55
2023/12/13 06:25:54;;;;;;;7.90;2.30;;;8.20;99.90;;;;;;7340119;32;20232;-56
2023/12/13 06:29:56;;;;;;;9.65;2.70;;;8.20;99.90;;;;;;7348017;32;20107;-56
2023/12/13 06:33:58;;;;;;;10.07;2.92;;;8.10;99.90;;;;;;7350046;32;20288;-56
2023/12/13 06:38:00;;;;;;;7.05;3.20;;;8.00;99.90;;;;;;7343141;32;20196;-58
2023/12/13 06:42:01;;;;;;;11.63;3.55;;;8.00;99.90;;;;;;7349525;32;20111;-57
2023/12/13 06:46:03;;;;;;;6.85;2.80;;;8.00;99.90;;;;;;7350654;32;20244;-56
2023/12/13 06:50:06;;;;;;;11.95;3.30;;;8.00;99.90;;;;;;7341173;32;20267;-55
2023/12/13 06:54:08;;;;;;;8.90;3.12;;;8.00;99.90;;;;;;7338869;32;21252;-56
2023/12/13 06:58:10;;;;;;;9.88;3.37;;;8.10;99.90;;;;;;7348704;32;20164;-56
2023/12/13 07:02:12;;;;;;;8.27;3.08;;;8.00;99.90;;;;;;7345859;32;20198;-57
2023/12/13 07:06:16;;;;;;;9.18;3.58;;;8.00;99.90;;;;;;7347254;32;20118;-56
2023/12/13 07:10:18;;;;;;;11.95;3.80;;;8.10;99.90;;;;;;7340104;32;20147;-55
2023/12/13 07:14:20;;;;;;;7.68;3.20;;;8.00;99.90;;;;;;7343574;32;20186;-56
2023/12/13 07:18:22;;;;;;;8.60;3.20;;;8.00;99.90;;;;;;7346493;32;20133;-57
2023/12/13 07:22:23;;;;;;;16.92;4.07;;;8.00;99.90;;;;;;7339283;32;20477;-56
2023/12/13 07:26:25;;;;;;;15.90;3.50;;;8.10;99.90;;;;;;7340680;32;20099;-55
2023/12/13 07:30:29;;;;;;;9.38;2.92;;;8.00;99.90;;;;;;7343866;32;20202;-57
2023/12/13 07:34:31;;;;;;;11.90;3.35;;;8.10;99.90;;;;;;7346414;32;20126;-58
2023/12/13 07:38:33;;;;;;;10.13;2.80;;;8.00;99.90;;;;;;7351945;32;20249;-57
2023/12/13 07:42:35;;;;;;;10.82;2.60;;;8.10;99.90;;;;;;7350114;32;20268;-57
2023/12/13 07:46:40;;;;;;;8.60;2.83;;;8.10;99.90;;;;;;7339901;32;20148;-57
2023/12/13 07:50:42;;;;;;;8.80;2.60;;;8.10;99.90;;;;;;7343800;32;20107;-58
2023/12/13 07:54:44;;;;;;;10.23;3.65;;;8.00;99.90;;;;;;7349068;32;20661;-57
2023/12/13 07:58:46;;;;;;;6.60;3.35;;;8.00;99.90;;;;;;7349086;32;20168;-57
2023/12/13 08:02:49;;;;;;;8.85;3.20;;;8.00;99.90;;;;;;7344134;32;20417;-56
2023/12/13 08:06:52;;;;;;;10.55;3.40;;;8.00;99.90;;;;;;7346788;32;20536;-57
2023/12/13 08:10:54;;;;;;;8.60;3.05;;;8.00;99.90;;;;;;7342337;32;20162;-57
2023/12/13 08:14:56;;;;;;;12.52;2.97;;;8.10;99.90;;;;;;7347116;32;20100;-56
2023/12/13 08:18:58;;;;;;;10.90;2.70;;;8.20;99.90;;;;;;7345379;32;20465;-56
2023/12/13 08:23:03;;;;;;;12.30;2.90;;;8.00;99.90;;;;;;7349339;32;20218;-57
2023/12/13 08:27:06;;;;;;;7.35;2.75;;;8.20;99.90;;;;;;7352921;32;20206;-57
2023/12/13 08:31:10;;;;;;;8.73;2.55;;;8.20;99.90;;;;;;7347182;32;20142;-57
2023/12/13 08:35:24;;;;;;;11.75;2.80;;;8.20;99.90;;;;;;7346850;32;20121;-57
2023/12/13 08:39:26;;;;;;;8.93;2.80;;;8.20;99.90;;;;;;7342055;32;20141;-56
2023/12/13 08:43:28;;;;;;;8.52;2.60;;;8.20;99.90;;;;;;7348512;32;20224;-56
2023/12/13 08:47:30;;;;;;;13.60;2.75;;;8.20;99.90;;;;;;7345452;32;20178;-57
2023/12/13 08:51:32;;;;;;;10.00;2.50;;;8.20;99.90;;;;;;7347193;32;20115;-57
2023/12/13 08:55:34;;;;;;;6.40;2.55;;;8.30;99.90;;;;;;7344318;32;20231;-57
2023/12/13 08:59:35;;;;;;;10.40;2.37;;;8.30;99.90;;;;;;7340766;32;20095;-57
2023/12/13 09:03:37;;;;;;;8.15;2.67;;;8.40;99.90;;;;;;7342679;32;20163;-57
2023/12/13 09:07:39;;;;;;;11.80;3.00;;;8.40;99.90;;;;;;7343969;32;20464;-55
2023/12/13 09:11:42;;;;;;;6.30;2.33;;;8.50;99.90;;;;;;7341103;32;20252;-57
2023/12/13 09:15:44;;;;;;;7.75;1.95;;;8.60;99.90;;;;;;7343341;32;20118;-56
2023/12/13 09:19:46;;;;;;;12.00;2.20;;;8.70;99.90;;;;;;7344908;32;20258;-55
2023/12/13 09:23:48;;;;;;;5.70;2.15;;;8.80;99.90;;;;;;7350286;32;20141;-56
2023/12/13 09:27:50;;;;;;;7.93;2.30;;;8.90;99.90;;;;;;7349491;32;20159;-56
2023/12/13 09:31:52;;;;;;;8.80;2.55;;;9.00;99.90;;;;;;7344310;32;20131;-56
2023/12/13 09:35:53;;;;;;;7.87;2.33;;;8.90;99.90;;;;;;7346255;32;20118;-56
2023/12/13 09:39:55;;;;;;;9.55;3.00;;;9.00;99.90;;;;;;7351136;32;20520;-58
2023/12/13 09:44:03;;;;;;;11.45;2.37;;;9.10;99.90;;;;;;7352788;32;20091;-57
2023/12/13 09:48:07;;;;;;;10.63;2.00;;;9.20;99.90;;;;;;7346604;32;20251;-57
2023/12/13 09:52:10;;;;;;;7.62;2.67;;;9.20;99.90;;;;;;7351986;32;20537;-57
2023/12/13 09:56:12;;;;;;;8.82;2.30;;;9.10;99.90;;;;;;7345987;32;20156;-57
2023/12/13 10:00:14;;;;;;;8.52;1.73;;;9.10;99.90;;;;;;7347572;32;20103;-57
2023/12/13 10:04:17;;;;;;;6.07;1.80;;;9.20;99.90;;;;;;7347248;32;20204;-57
2023/12/13 10:08:18;;;;;;;10.52;2.00;;;9.10;99.90;;;;;;7341193;32;20438;-57
2023/12/13 10:12:20;;;;;;;5.87;1.80;;;9.10;99.90;;;;;;7347638;32;20160;-58
2023/12/13 10:16:22;;;;;;;5.53;1.77;;;9.10;99.90;;;;;;7349512;32;20220;-57
2023/12/13 10:20:24;;;;;;;12.37;2.78;;;9.00;99.90;;;;;;7346507;32;20935;-58
2023/12/13 10:24:28;;;;;;;7.32;2.00;;;9.00;99.90;;;;;;7347078;32;20129;-58
2023/12/13 10:28:32;;;;;;;3.67;1.90;;;9.00;99.90;;;;;;7351316;32;20166;-57
2023/12/13 10:32:34;;;;;;;11.25;2.40;;;8.90;99.90;;;;;;7346005;32;20122;-57
2023/12/13 10:36:36;;;;;;;9.98;2.00;;;8.90;99.90;;;;;;7344899;32;20213;-57
2023/12/13 10:40:39;;;;;;;7.97;2.55;;;8.90;99.90;;;;;;7344843;32;20467;-57
2023/12/13 10:44:42;;;;;;;14.13;2.65;;;8.90;99.90;;;;;;7349537;32;20202;-58
2023/12/13 10:48:45;;;;;;;8.20;2.47;;;8.90;99.90;;;;;;7347743;32;20313;-58
2023/12/13 10:52:47;;;;;;;11.30;2.50;;;9.00;99.90;;;;;;7339822;32;20763;-58
2023/12/13 10:56:49;;;;;;;8.55;2.30;;;9.10;99.90;;;;;;7348829;32;20129;-57
2023/12/13 11:00:52;;;;;;;6.05;2.58;;;9.10;99.90;;;;;;7352938;32;20297;-58
2023/12/13 11:04:54;;;;;;;7.15;2.42;;;9.10;99.90;;;;;;7342984;32;20257;-58
2023/12/13 11:08:57;;;;;;;11.43;2.58;;;9.00;99.90;;;;;;7342158;32;23408;-57
2023/12/13 11:12:59;;;;;;;8.88;2.55;;;9.00;99.90;;;;;;7348767;32;20171;-58
2023/12/13 11:17:01;;;;;;;6.82;2.17;;;9.10;99.90;;;;;;7347093;32;20104;-59
2023/12/13 11:21:05;;;;;;;9.35;2.42;;;9.00;99.90;;;;;;7346086;32;20107;-58
2023/12/13 11:25:07;;;;;;;6.25;1.98;;;8.90;99.90;;;;;;7351904;32;20148;-57
2023/12/13 11:29:14;;;;;;;8.90;1.60;;;8.80;99.90;;;;;;7350275;32;20103;-58
2023/12/13 11:33:17;;;;;;;3.63;1.53;;;8.70;99.90;;;;;;7347254;32;20114;-58
2023/12/13 11:37:22;;;;;;;4.47;1.02;;;8.70;99.90;;;;;;7342953;32;20210;-57
2023/12/13 11:41:24;;;;;;;2.85;0.80;;;8.60;99.90;;;;;;7347821;32;20133;-57
2023/12/13 11:45:25;;;;;;;4.28;0.98;;;8.60;99.90;;;;;;7348827;32;20177;-58
2023/12/13 11:49:28;;;;;;;4.68;1.05;;;8.70;99.90;;;;;;7346371;32;20685;-58
2023/12/13 11:53:30;;;;;;;5.43;0.50;;;8.70;99.90;;;;;;7343388;32;20127;-59
2023/12/13 11:57:33;;;;;;;2.33;0.47;;;8.60;99.90;;;;;;7351335;32;20209;-59
2023/12/13 12:01:35;;;;;;;2.90;0.65;;;8.50;99.90;;;;;;7345425;32;20119;-58
2023/12/13 12:05:41;;;;;;;1.20;0.52;;;8.50;99.90;;;;;;7342433;32;20685;-58
2023/12/13 12:09:50;;;;;;;1.62;0.32;;;8.50;99.90;;;;;;7345235;32;20103;-58
2023/12/13 12:13:52;;;;;;;2.55;0.50;;;8.60;99.90;;;;;;7334511;32;20373;-58
2023/12/13 12:17:56;;;;;;;2.72;0.60;;;8.70;99.90;;;;;;7342488;32;20257;-58
2023/12/13 12:22:02;;;;;;;0.95;0.60;;;8.90;99.90;;;;;;7338761;32;20851;-58
2023/12/13 12:26:09;;;;;;;3.17;1.25;;;8.80;99.90;;;;;;7342468;32;21012;-59
2023/12/13 12:30:11;;;;;;;3.55;0.98;;;8.70;99.90;;;;;;7341682;32;20197;-58
2023/12/13 12:34:13;;;;;;;1.20;0.70;;;8.60;99.90;;;;;;7345070;32;20219;-58
2023/12/13 12:38:15;;;;;;;1.92;0.90;;;9.00;99.90;;;;;;7346801;32;20122;-58
2023/12/13 12:42:17;;;;;;;3.00;0.75;;;9.30;99.90;;;;;;7345937;32;20220;-58
2023/12/13 12:46:20;;;;;;;1.62;0.77;;;9.40;99.90;;;;;;7346090;32;20547;-58
2023/12/13 12:50:22;;;;;;;2.42;0.98;;;9.40;99.90;;;;;;7340576;32;20957;-58
2023/12/13 12:54:24;;;;;;;2.22;1.00;;;9.30;99.90;;;;;;7345242;32;20205;-58
2023/12/13 12:58:26;;;;;;;3.95;1.12;;;9.20;99.90;;;;;;7343124;32;20103;-58
2023/12/13 13:02:28;;;;;;;4.37;1.33;;;9.30;99.90;;;;;;7334922;32;20103;-58
2023/12/13 13:06:32;;;;;;;4.95;1.25;;;9.50;99.90;;;;;;7343974;32;20535;-57
2023/12/13 13:10:34;;;;;;;2.97;1.40;;;9.40;99.90;;;;;;7347241;32;20190;-57
2023/12/13 13:14:36;;;;;;;4.20;1.35;;;9.60;99.90;;;;;;7346916;32;20370;-58
2023/12/13 13:18:38;;;;;;;3.95;1.50;;;9.90;99.90;;;;;;7345736;32;20220;-57
2023/12/13 13:22:40;;;;;;;5.37;1.60;;;10.00;99.90;;;;;;7345903;32;20103;-58
2023/12/13 13:26:42;;;;;;;7.30;2.00;;;10.10;99.90;;;;;;7349430;32;20269;-58
2023/12/13 13:30:44;;;;;;;5.80;1.90;;;9.90;99.90;;;;;;7343839;32;20307;-58
2023/12/13 13:34:45;;;;;;;8.10;1.98;;;9.90;99.90;;;;;;7345945;32;20099;-58
2023/12/13 13:38:47;;;;;;;6.85;2.47;;;10.00;99.90;;;;;;7348009;32;20107;-58
2023/12/13 13:42:49;;;;;;;6.55;2.40;;;10.20;99.90;;;;;;7340754;32;20486;-57
2023/12/13 13:46:51;;;;;;;9.52;2.60;;;10.20;99.90;;;;;;7343199;32;20540;-57
2023/12/13 13:50:53;;;;;;;6.50;2.10;;;10.20;99.90;;;;;;7347792;32;20100;-58
2023/12/13 13:54:55;;;;;;;8.80;2.25;;;10.10;99.90;;;;;;7341512;32;20153;-58
2023/12/13 13:58:57;;;;;;;7.10;2.65;;;10.10;99.90;;;;;;7347558;32;20464;-57
2023/12/13 14:02:59;;;;;;;6.07;2.50;;;10.00;99.90;;;;;;7338996;32;20237;-57
2023/12/13 14:07:01;;;;;;;6.70;2.28;;;10.00;99.90;;;;;;7340557;32;20515;-58
2023/12/13 14:11:03;;;;;;;6.85;2.47;;;9.80;99.90;;;;;;7347320;32;20216;-57
2023/12/13 14:15:07;;;;;;;17.45;4.03;;;9.80;99.90;;;;;;7343735;32;20208;-57
2023/12/13 14:19:09;;;;;;;15.00;3.37;;;9.70;99.90;;;;;;7344548;32;20296;-58
2023/12/13 14:23:11;;;;;;;14.05;3.40;;;9.70;99.90;;;;;;7346333;32;20117;-57
2023/12/13 14:27:14;;;;;;;10.13;3.28;;;9.50;99.90;;;;;;7351633;32;20217;-58
2023/12/13 14:31:19;;;;;;;8.77;3.15;;;9.60;99.90;;;;;;7346322;32;20176;-58
2023/12/13 14:35:24;;;;;;;9.65;3.42;;;9.60;99.90;;;;;;7349264;32;20765;-57
2023/12/13 14:39:26;;;;;;;12.85;3.17;;;9.60;99.90;;;;;;7346300;32;20157;-58
2023/12/13 14:43:28;;;;;;;11.32;2.95;;;9.50;99.90;;;;;;7347496;32;21701;-57
2023/12/13 14:47:31;;;;;;;12.05;3.45;;;9.50;99.90;;;;;;7348110;32;20121;-58
2023/12/13 14:51:33;;;;;;;8.88;2.92;;;9.50;99.90;;;;;;7343147;32;20306;-58
2023/12/13 14:55:35;;;;;;;9.15;2.70;;;9.40;99.90;;;;;;7348640;32;20203;-58
2023/12/13 14:59:37;;;;;;;9.57;3.45;;;9.30;99.90;;;;;;7346933;32;20478;-58
2023/12/13 15:03:38;;;;;;;9.85;3.15;;;9.40;99.90;;;;;;7347427;32;20117;-58
2023/12/13 15:07:42;;;;;;;9.90;3.80;;;9.20;99.90;;;;;;7349216;32;20121;-58
2023/12/13 15:11:45;;;;;;;9.77;3.28;;;9.20;99.90;;;;;;7345308;32;20173;-60
2023/12/13 15:15:48;;;;;;;8.15;2.90;;;9.10;99.90;;;;;;7332897;32;20102;-58
2023/12/13 15:19:50;;;;;;;8.18;2.25;;;9.00;99.90;;;;;;7336010;32;20144;-58
2023/12/13 15:23:53;;;;;;;7.18;2.72;;;8.90;99.90;;;;;;7338119;32;20099;-58
2023/12/13 15:27:55;;;;;;;5.40;2.58;;;8.90;99.90;;;;;;7335560;32;20206;-57
2023/12/13 15:31:57;;;;;;;8.05;2.47;;;8.90;99.90;;;;;;7343006;32;20488;-57
2023/12/13 15:35:59;;;;;;;7.68;2.85;;;8.80;99.90;;;;;;7348946;32;20125;-57
2023/12/13 15:40:01;;;;;;;10.10;3.45;;;8.80;99.90;;;;;;7350501;32;20125;-57
2023/12/13 15:44:06;;;;;;;5.72;2.75;;;8.80;99.90;;;;;;7346082;32;20257;-57
2023/12/13 15:48:08;;;;;;;13.23;3.20;;;8.70;99.90;;;;;;7348068;32;20161;-56
2023/12/13 15:52:09;;;;;;;8.02;3.15;;;8.70;99.90;;;;;;7343306;32;20174;-57
2023/12/13 15:56:12;;;;;;;8.85;3.87;;;8.70;99.90;;;;;;7349517;32;20111;-57
2023/12/13 16:00:14;;;;;;;8.00;4.15;;;8.70;99.90;;;;;;7344545;32;20115;-58
2023/12/13 16:04:16;;;;;;;6.12;3.83;;;8.60;99.90;;;;;;7350271;32;20117;-57
2023/12/13 16:08:18;;;;;;;7.22;3.42;;;8.60;99.90;;;;;;7348458;32;20830;-55
2023/12/13 16:12:21;;;;;;;9.30;3.60;;;8.60;99.90;;;;;;7345703;32;20131;-56
2023/12/13 16:16:22;;;;;;;4.95;3.00;;;8.50;99.90;;;;;;7345305;32;20525;-56
2023/12/13 16:20:27;;;;;;;7.18;3.35;;;8.60;99.90;;;;;;7343657;32;20164;-57
2023/12/13 16:24:28;;;;;;;11.25;4.15;;;8.60;99.90;;;;;;7338076;32;20114;-58
2023/12/13 16:28:30;;;;;;;8.00;3.60;;;8.70;99.90;;;;;;7345252;32;20269;-56
2023/12/13 16:32:32;;;;;;;8.93;4.10;;;8.80;99.90;;;;;;7346735;32;20641;-57
2023/12/13 16:36:34;;;;;;;6.93;4.37;;;8.80;99.90;;;;;;7347254;32;20202;-56
2023/12/13 16:40:36;;;;;;;7.70;3.95;;;8.60;99.90;;;;;;7346098;32;20166;-56
2023/12/13 16:44:39;;;;;;;7.72;4.12;;;8.50;99.90;;;;;;7339635;32;20214;-56
2023/12/13 16:48:46;;;;;;;8.48;4.20;;;8.50;99.90;;;;;;7344054;32;20108;-56
2023/12/13 16:52:50;;;;;;;7.12;3.40;;;8.40;99.90;;;;;;7342036;32;20251;-56
2023/12/13 16:56:51;;;;;;;7.35;2.87;;;8.40;99.90;;;;;;7343681;32;20167;-56
2023/12/13 17:00:53;;;;;;;7.68;3.42;;;8.40;99.90;;;;;;7342256;32;20258;-56
2023/12/13 17:04:55;;;;;;;5.95;3.72;;;8.30;99.90;;;;;;7340292;32;20122;-56
2023/12/13 17:08:59;;;;;;;6.00;2.80;;;8.30;99.90;;;;;;7341054;32;20236;-56
2023/12/13 17:13:02;;;;;;;7.68;2.92;;;8.30;99.90;;;;;;7344322;32;20121;-57
2023/12/13 17:17:04;;;;;;;7.72;2.70;;;8.20;99.90;;;;;;7346777;32;20281;-56
2023/12/13 17:21:07;;;;;;;6.37;2.80;;;8.20;99.90;;;;;;7345841;32;20130;-56
2023/12/13 17:25:12;;;;;;;5.12;2.25;;;8.20;99.90;;;;;;7344344;32;20498;-57
2023/12/13 17:29:14;;;;;;;8.27;3.00;;;8.10;99.90;;;;;;7342780;32;20571;-56
2023/12/13 17:33:32;;;;;;;6.07;2.60;;;8.20;99.90;;;;;;7344795;32;20087;-56
2023/12/13 17:37:34;;;;;;;5.10;2.22;;;8.10;99.90;;;;;;7345058;32;20311;-56
2023/12/13 17:41:36;;;;;;;6.82;2.60;;;8.00;99.90;;;;;;7342059;32;20103;-57
2023/12/13 17:45:39;;;;;;;10.98;3.65;;;8.10;99.90;;;;;;7348628;32;20269;-56
2023/12/13 17:49:41;;;;;;;7.85;4.10;;;7.90;99.90;;;;;;7346138;32;20144;-56
2023/12/13 17:53:43;;;;;;;6.25;4.03;;;7.90;99.90;;;;;;7351718;32;20182;-56
2023/12/13 17:57:46;;;;;;;8.82;3.90;;;8.00;99.90;;;;;;7345159;32;20123;-55
2023/12/13 18:01:48;;;;;;;5.43;2.97;;;7.90;99.90;;;;;;7346839;32;20091;-56
2023/12/13 18:05:49;;;;;;;4.15;2.15;;;7.90;99.90;;;;;;7349428;32;20110;-56
2023/12/13 18:09:51;;;;;;;5.25;2.00;;;7.90;99.90;;;;;;7351902;32;20135;-55
2023/12/13 18:13:53;;;;;;;6.10;2.62;;;7.90;99.90;;;;;;7338902;32;20164;-56
2023/12/13 18:17:55;;;;;;;5.37;3.42;;;7.90;99.90;;;;;;7342515;32;20250;-57
2023/12/13 18:21:57;;;;;;;5.50;2.50;;;7.90;99.90;;;;;;7344172;32;20229;-56
2023/12/13 18:25:58;;;;;;;4.97;2.62;;;8.00;99.90;;;;;;7347773;32;20162;-56
2023/12/13 18:30:00;;;;;;;4.50;3.05;;;7.90;99.90;;;;;;7347019;32;20122;-57
2023/12/13 18:34:02;;;;;;;8.93;3.20;;;7.90;99.90;;;;;;7348240;32;20820;-57
2023/12/13 18:38:04;;;;;;;6.40;3.45;;;7.90;99.90;;;;;;7347071;32;20225;-56
2023/12/13 18:42:06;;;;;;;6.00;3.80;;;7.90;99.90;;;;;;7348762;32;20572;-55
2023/12/13 18:46:08;;;;;;;7.65;3.92;;;7.90;99.90;;;;;;7347321;32;20108;-54
2023/12/13 18:50:10;;;;;;;7.87;4.57;;;7.90;99.90;;;;;;7350339;32;20201;-56
2023/12/13 18:54:12;;;;;;;8.20;5.15;;;7.90;99.90;;;;;;7343960;32;20222;-55
2023/12/13 18:58:13;;;;;;;8.68;5.28;;;7.90;99.90;;;;;;7349125;32;20183;-55
2023/12/13 19:02:15;;;;;;;7.65;5.12;;;7.80;99.90;;;;;;7341566;32;20194;-55
2023/12/13 19:06:18;;;;;;;4.55;3.80;;;7.90;99.90;;;;;;7348175;32;20437;-55
2023/12/13 19:10:21;;;;;;;10.00;4.00;;;7.80;99.90;;;;;;7347127;32;20153;-55
2023/12/13 19:14:22;;;;;;;5.65;3.70;;;7.70;99.90;;;;;;7346121;32;20222;-56
2023/12/13 19:18:27;;;;;;;7.40;3.80;;;7.70;99.90;;;;;;7342649;32;20122;-56
2023/12/13 19:22:29;;;;;;;5.00;3.35;;;7.70;99.90;;;;;;7340043;32;20158;-55
2023/12/13 19:26:31;;;;;;;6.68;3.67;;;7.70;99.90;;;;;;7340026;32;20178;-56
2023/12/13 19:30:33;;;;;;;8.98;3.67;;;7.70;99.90;;;;;;7343908;32;20235;-57
2023/12/13 19:34:34;;;;;;;7.53;3.80;;;7.70;99.90;;;;;;7346370;32;20569;-55
2023/12/13 19:38:38;;;;;;;6.87;4.50;;;7.70;99.90;;;;;;7341342;32;20219;-55
2023/12/13 19:42:40;;;;;;;8.20;4.68;;;7.70;99.90;;;;;;7345205;32;20117;-55
2023/12/13 19:46:42;;;;;;;9.93;4.30;;;7.70;99.90;;;;;;7347331;32;20305;-55
2023/12/13 19:50:44;;;;;;;9.60;6.03;;;7.70;99.90;;;;;;7346387;32;20195;-56
2023/12/13 19:54:46;;;;;;;10.43;6.03;;;7.70;99.90;;;;;;7341780;32;20267;-55
2023/12/13 19:58:49;;;;;;;9.65;6.20;;;7.70;99.90;;;;;;7342302;32;20296;-56
2023/12/13 20:02:50;;;;;;;7.68;4.60;;;7.60;99.90;;;;;;7345176;32;20257;-56
2023/12/13 20:06:52;;;;;;;9.30;4.78;;;7.60;99.90;;;;;;7344547;32;20115;-61
2023/12/13 20:10:54;;;;;;;10.18;5.22;;;7.50;99.90;;;;;;7342529;32;20092;-55
2023/12/13 20:14:56;;;;;;;8.00;5.15;;;7.60;99.90;;;;;;7342264;32;20220;-55
2023/12/13 20:18:58;;;;;;;9.23;5.30;;;7.70;99.90;;;;;;7340700;32;20226;-55
2023/12/13 20:22:59;;;;;;;9.98;6.00;;;7.60;99.90;;;;;;7340695;32;20108;-56
2023/12/13 20:27:01;;;;;;;16.00;7.37;;;7.60;99.90;;;;;;7347906;32;20134;-56
2023/12/13 20:31:03;;;;;;;10.10;6.90;;;7.60;99.90;;;;;;7345536;32;20095;-56
2023/12/13 20:35:06;;;;;;;16.23;8.02;;;7.60;99.90;;;;;;7340601;32;20104;-54
2023/12/13 20:39:08;;;;;;;12.00;8.07;;;7.60;99.90;;;;;;7341763;32;20161;-55
2023/12/13 20:43:10;;;;;;;17.17;8.68;;;7.60;99.90;;;;;;7347956;32;20187;-54
2023/12/13 20:47:13;;;;;;;12.70;7.85;;;7.60;99.90;;;;;;7346219;32;20103;-56
2023/12/13 20:51:15;;;;;;;12.80;8.05;;;7.50;99.90;;;;;;7342586;32;20208;-54
2023/12/13 20:55:16;;;;;;;14.52;8.35;;;7.50;99.90;;;;;;7342381;32;20424;-54
2023/12/13 20:59:18;;;;;;;11.80;8.30;;;7.50;99.90;;;;;;7342334;32;20119;-55
2023/12/13 21:03:20;;;;;;;15.02;8.93;;;7.50;99.90;;;;;;7340377;32;20233;-55
2023/12/13 21:07:22;;;;;;;14.68;8.73;;;7.50;99.90;;;;;;7343493;32;20110;-56
2023/12/13 21:11:24;;;;;;;13.52;8.38;;;7.50;99.90;;;;;;7332850;32;20840;-56
2023/12/13 21:15:25;;;;;;;13.52;8.13;;;7.50;99.90;;;;;;7336151;32;20134;-53